createdAt,value
2022-10-12T00:04:08.385Z,11.60
2022-10-12T00:09:12.047Z,10.50
2022-10-12T00:14:15.771Z,13.50
2022-10-12T00:19:20.883Z,12.50
2022-10-12T00:24:24.688Z,15.15
2022-10-12T00:29:28.692Z,15.15
2022-10-12T00:34:33.808Z,12.75
2022-10-12T00:39:37.873Z,12.32
2022-10-12T00:44:44.184Z,9.15
2022-10-12T00:49:53.771Z,15.80
2022-10-12T00:54:57.792Z,13.95
2022-10-12T01:00:04.761Z,13.65
2022-10-12T01:05:11.746Z,7.50
2022-10-12T01:10:15.608Z,12.00
2022-10-12T01:15:19.641Z,12.43
2022-10-12T01:20:50.914Z,10.13
2022-10-12T01:26:17.824Z,10.55
2022-10-12T01:36:41.561Z,6.28
2022-10-12T01:41:49.371Z,8.18
2022-10-12T01:46:56.436Z,6.93
2022-10-12T01:57:20.249Z,8.55
2022-10-12T02:02:32.573Z,7.05
2022-10-12T02:07:42.540Z,7.47
2022-10-12T02:12:47.784Z,6.70
2022-10-12T02:17:54.326Z,8.77
2022-10-12T02:22:58.208Z,10.43
2022-10-12T02:28:07.024Z,4.53
2022-10-12T02:33:17.799Z,8.52
2022-10-12T02:38:29.315Z,10.05
2022-10-12T02:43:37.795Z,8.82
2022-10-12T02:48:44.700Z,10.48
2022-10-12T02:53:48.943Z,11.95
2022-10-12T02:58:52.741Z,7.30
2022-10-12T03:03:57.780Z,7.57
2022-10-12T03:09:01.727Z,5.43
2022-10-12T03:14:06.121Z,12.15
2022-10-12T03:19:11.417Z,5.30
2022-10-12T03:24:15.029Z,7.75
2022-10-12T03:29:18.718Z,7.28
2022-10-12T03:34:23.831Z,6.97
2022-10-12T03:39:27.456Z,6.35
2022-10-12T03:44:31.080Z,7.80
2022-10-12T03:49:36.132Z,10.43
2022-10-12T03:54:39.724Z,7.93
2022-10-12T03:59:43.345Z,7.95
2022-10-12T04:04:48.399Z,8.18
2022-10-12T04:09:52.098Z,6.18
2022-10-12T04:14:55.769Z,6.40
2022-10-12T04:20:00.784Z,10.25
2022-10-12T04:25:05.039Z,9.15
2022-10-12T04:30:09.986Z,9.93
2022-10-12T04:35:15.032Z,7.78
2022-10-12T04:40:18.812Z,4.65
2022-10-12T04:45:22.523Z,7.03
2022-10-12T04:50:30.190Z,7.75
2022-10-12T04:55:34.111Z,8.10
2022-10-12T05:00:37.815Z,5.82
2022-10-12T05:05:45.238Z,7.10
2022-10-12T05:10:48.823Z,9.50
2022-10-12T05:15:52.458Z,7.32
2022-10-12T05:20:57.446Z,6.25
2022-10-12T05:26:01.138Z,11.05
2022-10-12T05:31:04.815Z,11.70
2022-10-12T05:36:10.674Z,9.57
2022-10-12T05:41:14.379Z,8.43
2022-10-12T05:46:18.021Z,8.18
2022-10-12T05:51:27.927Z,12.07
2022-10-12T05:56:32.632Z,10.77
2022-10-12T06:01:36.299Z,9.02
2022-10-12T06:06:41.512Z,9.80
2022-10-12T06:11:45.227Z,8.57
2022-10-12T06:16:52.328Z,7.93
2022-10-12T06:21:59.567Z,7.40
2022-10-12T06:27:03.217Z,10.23
2022-10-12T06:32:07.082Z,7.05
2022-10-12T06:37:25.382Z,9.07
2022-10-12T06:42:36.077Z,11.57
2022-10-12T06:47:42.213Z,7.67
2022-10-12T06:52:48.164Z,9.32
2022-10-12T06:57:52.047Z,11.82
2022-10-12T07:02:55.819Z,5.88
2022-10-12T07:08:01.194Z,10.00
2022-10-12T07:13:05.226Z,7.57
2022-10-12T07:18:08.970Z,13.43
2022-10-12T07:23:14.134Z,9.07
2022-10-12T07:28:18.226Z,12.30
2022-10-12T07:33:21.873Z,16.52
2022-10-12T07:38:27.222Z,8.43
2022-10-12T07:43:32.221Z,9.00
2022-10-12T07:48:36.399Z,12.63
2022-10-12T07:53:41.464Z,15.68
2022-10-12T07:58:49.943Z,15.45
2022-10-12T08:03:58.727Z,11.30
2022-10-12T08:09:06.566Z,12.75
2022-10-12T08:14:15.721Z,14.30
2022-10-12T08:19:19.782Z,12.18
2022-10-12T08:24:24.853Z,18.25
2022-10-12T08:29:28.532Z,21.88
2022-10-12T08:34:32.505Z,25.45
2022-10-12T08:39:37.539Z,23.63
2022-10-12T08:44:57.939Z,23.35
2022-10-12T08:50:03.980Z,17.23
2022-10-12T08:55:21.900Z,24.73
2022-10-12T09:00:25.703Z,21.73
2022-10-12T09:05:34.718Z,19.88
2022-10-12T09:10:48.443Z,23.58
2022-10-12T09:15:57.959Z,16.65
2022-10-12T09:21:06.280Z,14.50
2022-10-12T09:26:16.627Z,14.82
2022-10-12T09:31:33.112Z,13.75
2022-10-12T09:36:39.286Z,12.50
2022-10-12T09:41:46.397Z,9.40
2022-10-12T09:52:00.811Z,7.95
2022-10-12T09:57:05.918Z,12.23
2022-10-12T10:02:16.442Z,13.73
2022-10-12T10:07:27.305Z,10.68
2022-10-12T10:12:32.811Z,15.43
2022-10-12T10:17:36.616Z,15.07
2022-10-12T10:22:48.809Z,11.13
2022-10-12T10:28:12.135Z,11.07
2022-10-12T10:33:19.970Z,5.82
2022-10-12T10:38:23.662Z,12.60
2022-10-12T10:43:31.330Z,8.23
2022-10-12T10:48:51.369Z,14.93
2022-10-12T10:53:55.224Z,11.00
2022-10-12T10:59:09.053Z,10.70
2022-10-12T11:04:20.037Z,11.70
2022-10-12T11:09:29.971Z,8.50
2022-10-12T11:14:41.553Z,10.30
2022-10-12T11:19:52.953Z,8.77
2022-10-12T11:25:04.431Z,9.30
2022-10-12T11:30:15.794Z,11.65
2022-10-12T11:35:26.354Z,9.85
2022-10-12T11:41:02.582Z,11.27
2022-10-12T11:46:04.341Z,7.95
2022-10-12T11:51:08.601Z,10.73
2022-10-12T11:56:17.795Z,8.50
2022-10-12T12:01:44.147Z,6.78
2022-10-12T12:06:57.312Z,7.63
2022-10-12T12:12:23.321Z,10.90
2022-10-12T12:17:32.234Z,9.07
2022-10-12T12:22:54.756Z,12.07
2022-10-12T12:28:00.634Z,7.43
2022-10-12T12:33:25.451Z,8.20
2022-10-12T12:38:33.341Z,8.35
2022-10-12T12:43:56.306Z,6.63
2022-10-12T12:49:07.413Z,6.13
2022-10-12T12:54:19.590Z,8.48
2022-10-12T12:59:49.881Z,4.95
2022-10-12T13:05:19.603Z,6.45
2022-10-12T13:10:32.936Z,3.92
2022-10-12T13:15:58.331Z,7.35
2022-10-12T13:21:06.629Z,10.57
2022-10-12T13:26:11.932Z,11.57
2022-10-12T13:31:21.109Z,6.15
2022-10-12T13:36:29.728Z,7.22
2022-10-12T13:41:34.312Z,5.05
2022-10-12T13:46:42.554Z,6.75
2022-10-12T13:51:49.478Z,7.82
2022-10-12T13:56:57.515Z,8.50
2022-10-12T14:02:03.204Z,8.02
2022-10-12T14:07:19.114Z,9.77
2022-10-12T14:12:25.579Z,5.22
2022-10-12T14:17:32.128Z,4.22
2022-10-12T14:22:40.694Z,6.07
2022-10-12T14:27:45.318Z,4.63
2022-10-12T14:32:50.793Z,8.10
2022-10-12T14:37:57.743Z,5.15
2022-10-12T14:43:04.921Z,5.82
2022-10-12T14:48:17.126Z,8.52
2022-10-12T14:53:22.522Z,5.13
2022-10-12T14:58:26.186Z,6.32
2022-10-12T15:03:29.884Z,6.50
2022-10-12T15:08:35.006Z,8.50
2022-10-12T15:13:38.927Z,11.55
2022-10-12T15:18:42.631Z,5.15
2022-10-12T15:23:48.195Z,10.07
2022-10-12T15:28:51.887Z,7.50
2022-10-12T15:33:55.598Z,12.55
2022-10-12T15:39:00.674Z,7.55
2022-10-12T15:44:04.474Z,8.68
2022-10-12T15:49:08.347Z,7.90
2022-10-12T15:54:13.490Z,12.45
2022-10-12T15:59:17.107Z,8.13
2022-10-12T16:04:21.262Z,6.72
2022-10-12T16:09:28.287Z,10.63
2022-10-12T16:19:37.654Z,6.10
2022-10-12T16:24:42.700Z,9.07
2022-10-12T16:29:46.394Z,11.75
2022-10-12T16:34:50.187Z,9.15
2022-10-12T16:39:55.685Z,6.47
2022-10-12T16:44:59.375Z,8.35
2022-10-12T16:50:03.187Z,7.10
2022-10-12T16:55:09.468Z,10.77
2022-10-12T17:00:17.110Z,6.73
2022-10-12T17:05:21.705Z,9.43
2022-10-12T17:10:26.723Z,10.77
2022-10-12T17:15:30.392Z,13.50
2022-10-12T17:20:34.023Z,8.40
2022-10-12T17:25:39.151Z,9.63
2022-10-12T17:30:42.808Z,8.40
2022-10-12T17:35:46.610Z,12.65
2022-10-12T17:40:52.033Z,9.98
2022-10-12T17:45:55.654Z,17.90
2022-10-12T17:51:03.201Z,7.85
2022-10-12T17:56:12.696Z,12.50
2022-10-12T18:01:17.464Z,11.52
2022-10-12T18:06:21.919Z,11.27
2022-10-12T18:11:27.507Z,11.13
2022-10-12T18:16:32.930Z,12.27
2022-10-12T18:21:37.279Z,13.55
2022-10-12T18:26:43.490Z,7.95
2022-10-12T18:31:47.390Z,12.70
2022-10-12T18:36:52.694Z,12.90
2022-10-12T18:41:57.900Z,14.52
2022-10-12T18:47:01.634Z,14.30
2022-10-12T18:52:05.395Z,14.18
2022-10-12T18:57:10.546Z,13.65
2022-10-12T19:02:17.342Z,12.20
2022-10-12T19:07:21.308Z,15.07
2022-10-12T19:12:26.432Z,11.05
2022-10-12T19:17:32.100Z,15.63
2022-10-12T19:22:35.801Z,15.32
2022-10-12T19:27:41.043Z,15.20
2022-10-12T19:32:46.859Z,8.90
2022-10-12T19:37:50.486Z,11.52
2022-10-12T19:42:55.485Z,10.98
2022-10-12T19:48:01.724Z,11.55
2022-10-12T19:53:05.568Z,11.27
2022-10-12T19:58:10.683Z,7.18
2022-10-12T20:03:14.565Z,15.70
2022-10-12T20:08:19.854Z,16.13
2022-10-12T20:13:24.991Z,15.63
2022-10-12T20:18:31.801Z,11.95
2022-10-12T20:23:36.428Z,9.48
2022-10-12T20:28:44.849Z,16.15
2022-10-12T20:33:51.000Z,13.32
2022-10-12T20:38:55.375Z,8.52
2022-10-12T20:44:01.970Z,9.02
2022-10-12T20:49:05.952Z,6.85
2022-10-12T20:54:14.766Z,13.23
2022-10-12T20:59:20.167Z,7.85
2022-10-12T21:04:25.386Z,12.45
2022-10-12T21:09:29.415Z,12.90
2022-10-12T21:14:34.585Z,8.25
2022-10-12T21:19:38.311Z,8.02
2022-10-12T21:24:42.245Z,9.52
2022-10-12T21:29:47.310Z,18.33
2022-10-12T21:34:51.189Z,11.02
2022-10-12T21:39:54.920Z,10.70
2022-10-12T21:45:00.084Z,7.63
2022-10-12T21:50:08.102Z,9.98
2022-10-12T21:55:11.788Z,9.23
2022-10-12T22:00:17.485Z,11.45
2022-10-12T22:05:23.090Z,10.65
2022-10-12T22:10:29.766Z,12.60
2022-10-12T22:15:35.951Z,14.15
2022-10-12T22:20:48.240Z,9.38
2022-10-12T22:25:51.940Z,11.73
2022-10-12T22:30:57.121Z,8.20
2022-10-12T22:36:01.969Z,14.60
2022-10-12T22:41:07.917Z,9.65
2022-10-12T22:46:21.993Z,12.43
2022-10-12T22:51:32.164Z,11.07
2022-10-12T22:56:36.229Z,10.20
2022-10-12T23:01:41.363Z,15.35
2022-10-12T23:06:45.110Z,14.57
2022-10-12T23:11:51.266Z,16.25
2022-10-12T23:16:56.296Z,9.52
2022-10-12T23:22:00.952Z,10.95
2022-10-12T23:27:04.581Z,10.05
2022-10-12T23:32:09.744Z,15.07
2022-10-12T23:37:13.652Z,10.88
2022-10-12T23:42:17.823Z,10.15
2022-10-12T23:47:23.078Z,13.43
2022-10-12T23:52:26.790Z,11.65
2022-10-12T23:57:46.297Z,12.30
